Rhapsody Of The Seas — C6UA2 — position and weather

sailwx.info

Track history (hours):
 
Tides and Currents Weather Stations Pressure Air Temp Water Temp Dewpoint Dewpoint Depression Visibility Wind Speed Wind Dir Waves Ship Positions

Rhapsody Of The Seas

Last reported at 2014-Aug-27 12:00 UTC. Time now 2014-Aug-27 17:12 UTC.
Position N 52°48' W 132°48'.

Type: Passenger vessel. MMSI: 311805000.

Wind from 310 at 10 knots

Waves 1.5 meters (5 feet), 5 second period

Barometer 1018.0 mb
Air temperature 17.0 ° C
Visibility: greater than 5.4 NM
Dewpoint 13.7 ° C
Water temperature 17.0 ° C

Date/timePositionNaut miles runAvg speedWind from/ knotsBaromVisibWave heightAir tempDewpointWater temp
2014-Aug-27 12:00N 52°48' W 132°48'   310 / 101018.0 5.4 1.517.013.717.0
2014-Aug-23 03:34N 48°15' W 123°32'1212.1
2014-Aug-23 02:32N 48°10' W 123°16'2419.6
2014-Aug-23 01:20N 48°08' W 122°40'1519.6
2014-Aug-23 00:34N 47°55' W 122°29'1616.4
2014-Aug-22 23:34N 47°38' W 122°27'3 3.0
2014-Aug-22 22:32N 47°38' W 122°23'0 0.0
2014-Aug-22 21:32N 47°38' W 122°23'0 0.0
2014-Aug-22 20:32N 47°38' W 122°23'0 0.0
2014-Aug-22 19:32N 47°38' W 122°23'0 0.0
2014-Aug-22 18:32N 47°38' W 122°23'0 0.0
2014-Aug-22 17:32N 47°38' W 122°23'0 0.0
2014-Aug-22 16:32N 47°38' W 122°23'0 0.0
2014-Aug-22 15:32N 47°38' W 122°23'0 0.0
2014-Aug-22 14:32N 47°38' W 122°23'0 0.0
2014-Aug-22 13:32N 47°38' W 122°23'0 0.2
2014-Aug-22 12:34N 47°37' W 122°23'8 7.7
2014-Aug-22 11:33N 47°45' W 122°27'1313.1
2014-Aug-22 10:33N 47°57' W 122°34'1413.4
2014-Aug-22 09:28N 48°09' W 122°45'1313.8
2014-Aug-22 08:33N 48°12' W 123°04'1313.1
2014-Aug-22 07:32N 48°10' W 123°23'9 8.4
2014-Aug-22 06:25N 48°13' W 123°37'7 8.6
2014-Aug-22 05:33N 48°13' W 123°48'6 5.9
2014-Aug-22 04:33N 48°16' W 123°55'8 7.7
2014-Aug-22 03:33N 48°16' W 123°43'8 8.0
2014-Aug-22 02:33N 48°15' W 123°32'8 7.9
2014-Aug-22 01:33N 48°22' W 123°25'3 3.0
2014-Aug-22 00:31N 48°25' W 123°24'0 0.0
2014-Aug-21 23:31N 48°25' W 123°24'0 0.0
2014-Aug-21 22:31N 48°25' W 123°24'0 0.0
2014-Aug-21 21:31N 48°25' W 123°24'0 0.0
2014-Aug-21 20:31N 48°25' W 123°24'0 0.0
2014-Aug-21 19:31N 48°25' W 123°24'0 0.0
2014-Aug-21 18:31N 48°25' W 123°24'0 0.0
2014-Aug-21 17:31N 48°25' W 123°24'0 0.0
2014-Aug-21 16:28N 48°25' W 123°24'0 0.0
2014-Aug-21 15:31N 48°25' W 123°24'5 5.2
2014-Aug-21 14:33N 48°20' W 123°24'1211.6
2014-Aug-21 13:29N 48°14' W 123°40'1415.3
2014-Aug-21 12:33N 48°15' W 124°02'1616.0
2014-Aug-21 11:33N 48°22' W 124°23'1615.7
2014-Aug-21 10:33N 48°28' W 124°45'3416.5
2014-Aug-21 08:31N 48°37' W 125°34'1617.0
2014-Aug-21 07:33N 48°46' W 125°54'1817.7
2014-Aug-21 06:31N 48°57' W 126°17'  
Track history (hours):
 
Tides and Currents Weather Stations Pressure Air Temp Water Temp Dewpoint Dewpoint Depression Visibility Wind Speed Wind Dir Waves Ship Positions

Rhapsody Of The Seas

Last reported at 2014-Aug-27 12:00 UTC. Time now 2014-Aug-27 17:12 UTC.
Position N 52°48' W 132°48'.

Type: Passenger vessel. MMSI: 311805000.

Wind from 310 at 10 knots

Waves 1.5 meters (5 feet), 5 second period

Barometer 1018.0 mb
Air temperature 17.0 ° C
Visibility: greater than 5.4 NM
Dewpoint 13.7 ° C
Water temperature 17.0 ° C

Date/timePositionNaut miles runAvg speedWind from/ knotsBaromVisibWave heightAir tempDewpointWater temp
2014-Aug-27 12:00N 52°48' W 132°48'   310 / 101018.0 5.4 1.517.013.717.0
2014-Aug-23 03:34N 48°15' W 123°32'1212.1
2014-Aug-23 02:32N 48°10' W 123°16'2419.6
2014-Aug-23 01:20N 48°08' W 122°40'1519.6
2014-Aug-23 00:34N 47°55' W 122°29'1616.4
2014-Aug-22 23:34N 47°38' W 122°27'3 3.0
2014-Aug-22 22:32N 47°38' W 122°23'0 0.0
2014-Aug-22 21:32N 47°38' W 122°23'0 0.0
2014-Aug-22 20:32N 47°38' W 122°23'0 0.0
2014-Aug-22 19:32N 47°38' W 122°23'0 0.0
2014-Aug-22 18:32N 47°38' W 122°23'0 0.0
2014-Aug-22 17:32N 47°38' W 122°23'0 0.0
2014-Aug-22 16:32N 47°38' W 122°23'0 0.0
2014-Aug-22 15:32N 47°38' W 122°23'0 0.0
2014-Aug-22 14:32N 47°38' W 122°23'0 0.0
2014-Aug-22 13:32N 47°38' W 122°23'0 0.2
2014-Aug-22 12:34N 47°37' W 122°23'8 7.7
2014-Aug-22 11:33N 47°45' W 122°27'1313.1
2014-Aug-22 10:33N 47°57' W 122°34'1413.4
2014-Aug-22 09:28N 48°09' W 122°45'1313.8
2014-Aug-22 08:33N 48°12' W 123°04'1313.1
2014-Aug-22 07:32N 48°10' W 123°23'9 8.4
2014-Aug-22 06:25N 48°13' W 123°37'7 8.6
2014-Aug-22 05:33N 48°13' W 123°48'6 5.9
2014-Aug-22 04:33N 48°16' W 123°55'8 7.7
2014-Aug-22 03:33N 48°16' W 123°43'8 8.0
2014-Aug-22 02:33N 48°15' W 123°32'8 7.9
2014-Aug-22 01:33N 48°22' W 123°25'3 3.0
2014-Aug-22 00:31N 48°25' W 123°24'0 0.0
2014-Aug-21 23:31N 48°25' W 123°24'0 0.0
2014-Aug-21 22:31N 48°25' W 123°24'0 0.0
2014-Aug-21 21:31N 48°25' W 123°24'0 0.0
2014-Aug-21 20:31N 48°25' W 123°24'0 0.0
2014-Aug-21 19:31N 48°25' W 123°24'0 0.0
2014-Aug-21 18:31N 48°25' W 123°24'0 0.0
2014-Aug-21 17:31N 48°25' W 123°24'0 0.0
2014-Aug-21 16:28N 48°25' W 123°24'0 0.0
2014-Aug-21 15:31N 48°25' W 123°24'5 5.2
2014-Aug-21 14:33N 48°20' W 123°24'1211.6
2014-Aug-21 13:29N 48°14' W 123°40'1415.3
2014-Aug-21 12:33N 48°15' W 124°02'1616.0
2014-Aug-21 11:33N 48°22' W 124°23'1615.7
2014-Aug-21 10:33N 48°28' W 124°45'3416.5
2014-Aug-21 08:31N 48°37' W 125°34'1617.0
2014-Aug-21 07:33N 48°46' W 125°54'1817.7
2014-Aug-21 06:31N 48°57' W 126°17'  

Dump ship's entire track history